Bookmark and Share
Track history (hours):
 

Georg Jacob

Last reported at 2014-Apr-16 11:20 UTC. Time now 2014-Apr-16 19:18 UTC.
Position N 07°43' W 014°45'.

Length 229 m; draft 13.1 m.

Type: Tanker. MMSI: 636092136.

NotesDate/timePositionNaut miles runAvg speedWind from/ knotsBaromVisibWave heightAir tempDewpointWater temp
2014-Apr-16 11:20N 07°43' W 014°45'7112.3
2014-Apr-16 05:33N 08°38' W 015°31'1212.2
2014-Apr-16 04:33N 08°47' W 015°39'1212.1
2014-Apr-16 03:33N 08°57' W 015°47'1312.4
2014-Apr-16 02:32N 09°06' W 015°55'1212.2
2014-Apr-16 01:33N 09°15' W 016°03'1212.4
2014-Apr-16 00:33N 09°25' W 016°11'1212.3
2014-Apr-15 23:33N 09°35' W 016°19'1211.9
2014-Apr-15 22:33N 09°44' W 016°26'1212.0
2014-Apr-15 21:34N 09°53' W 016°34'1211.9
2014-Apr-15 20:31N 10°03' W 016°42'1111.8
2014-Apr-15 19:34N 10°11' W 016°50'1111.1
2014-Apr-15 18:34N 10°20' W 016°57'20710.9
2014-Apr-14 23:33N 13°35' W 018°09'  
2014-Apr-09 23:27N 37°56' W 012°02'2812.8
2014-Apr-09 21:15N 38°23' W 011°52'1313.0
2014-Apr-09 20:14N 38°36' W 011°48'912.7
2014-Apr-09 19:33N 38°44' W 011°45'1312.6
2014-Apr-09 18:33N 38°56' W 011°40'1312.5
2014-Apr-09 17:33N 39°08' W 011°36'  
2014-Apr-06 12:29N 50°12' W 001°40'8 7.7
2014-Apr-06 11:29N 50°14' W 001°29'  

Dump ship's entire track history

sailing weather and tide predictions

Georg Jacob — A8XG5 — position and weather